Terminal Aerodrome Forecast
Issued by NWS Lake Charles, LA

Home | Current Version | Previous Version | Text Only | Print | Product List | Glossary On
Versions: 1 2 3 4 5 6 7 8 9 10 11 12 13 14 15 16 17
376
FTUS44 KLCH 250520
TAFAEX
TAF
KAEX 250520Z 2506/2606 00000KT P6SM SCT250
      TEMPO 2511/2514 5SM BR
     FM251600 27007KT P6SM FEW040 SCT200
     FM260000 31009KT P6SM VCSH BKN050 PROB30 2601/2606 3SM SHRA
      BKN030 OVC050=

USA.gov is the U.S. government's official web portal to all federal, state and local government web resources and services.